Tiempo atmosférico en la estación meteorológica de Toledo, Toledo (515 m.)



Fecha
DESCASC
Temp. máxima en grados centígrados (hora)
DESCASC
Temp. mínima en grados centígrados (hora)
DESCASC
Temp. media en grados centígrados
DESCASC
Racha de viento máxima en m/sg (hora)
DESCASC
Velocidad máxima media en intervalos de 10 minutos(hora)
DESCASC
Precipitaciones diarias en mm
DESCASC
Precipitaciones de 00:00 a 06:00 en mm
DESCASC
Precipitaciones de 06:00 a 12:00 en mm
DESCASC
Precipitaciones de 12:00 a 18:00 en mm
DESCASC
Precipitaciones de 18:00 a 24:00 en mm
DESCASC
05-12-2019 13.5 (13:30) 7.4 (03:40) 10.5 10.28 (10:40) 6.94 (10:40) 0 0 0 0 0
04-12-2019 8.3 (15:40) 6 (08:30) 7.2 8.33 (04:00) 4.44 (03:50) 3.2 0 1 2.2 0
03-12-2019 9.9 (15:40) 5.4 (09:00) 7.6 6.94 (01:00) 4.72 (03:10) 0 0 0 0 0
02-12-2019 11.5 (16:00) 7.1 (00:00) 9.3 11.39 (07:10) 7.5 (13:00) 5.6 4.8 0.6 0 0.2
01-12-2019 12.1 (11:40) 7.2 (00:00) 9.7 8.61 (12:30) 4.44 (12:10) 8 0 0.8 3.4 3.8
30-11-2019 18.1 (14:30) 8.8 (00:00) 13.5 10 (15:10) 6.94 (15:10) 4.2 0 0 0 4.2
29-11-2019 16.2 (15:40) 11.9 (00:00) 14.1 10.28 (11:50) 6.67 (13:50) 0 0 0 0 0
28-11-2019 14.3 (16:20) 8.1 (05:00) 11.2 9.44 (17:20) 6.39 (17:50) 0 0 0 0 0
27-11-2019 14.6 (14:00) 9.8 (00:00) 12.2 15 (14:00) 9.72 (14:00) 0.6 0.6 0 0 0
26-11-2019 16.8 (14:00) 10 (00:00) 13.4 10.28 (20:10) 5.83 (20:10) 1 0 0 0.6 0.4
25-11-2019 16.8 (15:50) 9.7 (06:10) 13.2 9.17 (17:30) 6.39 (17:40) 1.2 1 0 0.2 0
24-11-2019 12.9 (15:30) 4 (00:00) 8.4 10 (17:20) 6.39 (17:20) 0 0 0 0 0
23-11-2019 14.2 (16:40) 7.4 (00:00) 10.8 17.22 (00:40) 10.28 (00:20) 0 0 0 0 0
22-11-2019 14.1 (14:30) 6.7 (00:00) 10.4 14.44 (22:40) 9.44 (23:00) 4.2 0 0.6 3.4 0.2
21-11-2019 12 (14:50) 6.3 (00:00) 9.2 7.5 (16:30) 5 (16:20) 1.8 1 0.4 0.4 0
20-11-2019 10 (13:40) 3.9 (05:50) 7 4.44 (11:00) 3.33 (09:40) 4.2 0 0 1.2 3
19-11-2019 12.9 (14:30) 0 (00:00) 6.4 6.67 (15:30) 4.17 (15:40) 0 0 0 0 0
18-11-2019 12.8 (14:20) 3.8 (00:00) 8.3 10.83 (15:30) 6.94 (15:20) 0.2 0.2 0 0 0
17-11-2019 9.1 (12:10) 2.2 (00:00) 5.7 7.5 (10:50) 5 (11:00) 8.8 0 0 0.6 8.2
16-11-2019 12.1 (16:50) 3.2 (00:00) 7.7 9.72 (07:00) 6.39 (07:00) 0 0 0 0 0
15-11-2019 10.8 (14:50) 4.7 (00:00) 7.8 10.83 (13:10) 7.22 (02:30) 0 0 0 0 0
14-11-2019 12.6 (00:10) 4.1 (00:00) 8.4 18.61 (16:30) 12.78 (16:20) 4 0 3.8 0.2 0
13-11-2019 19.1 (16:00) 12 (00:00) 15.6 19.72 (06:30) 11.67 (06:30) 0.2 0.2 0 0 0
12-11-2019 14.9 (15:50) 3.5 (00:00) 9.2 11.94 (23:59) 7.78 (23:59) 0 0 0 0 0
11-11-2019 12.1 (16:10) 5.4 (02:30) 8.8 9.17 (14:10) 6.11 (14:10) 0 0 0 0 0
10-11-2019 11 (15:30) 7 (00:00) 9 13.89 (06:10) 8.89 (06:20) 0 0 0 0 0
09-11-2019 13 (14:20) 3.6 (00:00) 8.3 10.56 (15:10) 7.5 (15:10) 8.8 0 0 8.8 0
08-11-2019 14.2 (15:50) 4.3 (07:50) 9.3 13.06 (14:50) 7.78 (15:30) 0 0 0 0 0

Gráficas

Temp. máximas Temp. mínimas Temp. medias Precipitaciones Rachas de viento máximas Velocidades máximas media en intervalos de 10 minutos

Datos horarios

Fecha y hora oficial Temperatura (ºC) Velocidad del viento (km/h) Dirección del viento Racha (km/h) Dirección de racha Precipitación (mm) Presión (hPa) Tendencia (hPa) Humedad (%)
2019-12-07 23:00:00 6 0 Calma 4 Oeste 0 964.9 1.1 98
2019-12-07 22:00:00 6.2 4 Sudoeste 5 Sudoeste 0 964.5 1.1 93
2019-12-07 21:00:00 6.7 3 Nordeste 5 Sur 0 964 0.8 94
2019-12-07 20:00:00 8.3 3 Nordeste 5 Nordeste 0 963.8 0.9 88
2019-12-07 19:00:00 8.6 3 Sur 8 Este 0 963.4 0.6 88
2019-12-07 18:00:00 9.9 4 Nordeste 8 Este 0 963.2 0.5 79
2019-12-07 17:00:00 11.8 6 Este 10 Sudeste 0 962.9 -0.4 74
2019-12-07 16:00:00 10.9 7 Sudeste 15 Este 0 962.8 -1.3 81
2019-12-07 15:00:00 10.8 9 Sudeste 13 Sudeste 0 962.7 -1.9 81
2019-12-07 14:00:00 8.2 6 Este 13 Sudeste 0 963.3 -1.4 92
2019-12-07 13:00:00 6.3 10 Sudeste 15 Sudeste 0 964.1 -0.3 97
2019-12-07 12:00:00 5.9 7 Sudeste 12 Este 0 964.6 0.7 100
2019-12-07 11:00:00 4.5 7 Sudeste 13 Este 0 964.7 1.3 100
2019-12-07 10:00:00 3.9 9 Este 13 Este 0 964.4 1.4 100
2019-12-07 09:00:00 3.2 7 Este 17 Este 0 963.9 0.6 99
2019-12-07 08:00:00 4.3 6 Sur 13 Nordeste 0 963.4 0.3 95
2019-12-07 07:00:00 4.9 9 Este 14 Este 0 963 -0.1 99
2019-12-07 06:00:00 3.8 6 Este 15 Este 0 963.3 0.6 100
2019-12-07 05:00:00 3.8 5 Sudeste 8 Sudeste 0 963.1 0.3 98
2019-12-07 04:00:00 4.3 3 Sur 8 Este 0 963.1 -0.1 97
2019-12-07 03:00:00 4.9 4 Sur 9 Sudeste 0 962.7 -0.6 96
2019-12-07 02:00:00 5.4 4 Nordeste 13 Sudeste 0 962.8 0.1 96
2019-12-07 01:00:00 6.3 7 Sur 12 Sudeste 0 963.2 0.7 94
2019-12-07 00:00:00 6.4 5 Este 8 Sudeste 0 963.3 1.1 94
2019-12-06 23:00:00 7.6 3 Sur 6 Este 0 962.7 0.8 90
2019-12-06 22:00:00 7.7 5 Sur 6 Sur 0 962.5 0.9 87
2019-12-06 21:00:00 8.3 5 Sudeste 10 Nordeste 0 962.2 1 84
2019-12-06 20:00:00 9.1 8 Este 11 Este 0 961.9 0.8 81
2019-12-06 19:00:00 9.8 8 Este 15 Este 0 961.6 0.6 79
2019-12-06 18:00:00 11.7 10 Sudeste 15 Este 0 961.2 0.2 72
2019-12-06 17:00:00 12.7 6 Este 14 Este 0 961.1 -0.4 65
2019-12-06 16:00:00 13.1 6 Este 13 Sudeste 0 961 -1.2 67
2019-12-06 15:00:00 13.1 10 Este 18 Este 0 961 -1.7 68
2019-12-06 14:00:00 13.9 10 Este 19 Este 0 961.5 -1.5 65
2019-12-06 13:00:00 12.9 13 Sudeste 23 Sudeste 0 962.2 -0.4 69
2019-12-06 12:00:00 12.1 13 Sudeste 19 Sudeste 0 962.7 0.5 69
2019-12-06 11:00:00 10.6 13 Este 19 Este 0 963 1 75
2019-12-06 10:00:00 8.4 8 Este 16 Sudeste 0 962.6 1.1 85
2019-12-06 09:00:00 5.6 3 Sudeste 5 Este 0 962.2 1.2 95
2019-12-06 08:00:00 5.3 3 Sudeste 12 Este 0 962 1.4 96
2019-12-06 07:00:00 5.5 6 Este 10 Este 0 961.5 0.9 94
2019-12-06 06:00:00 6 8 Este 12 Este 0 961 0.4 93
2019-12-06 05:00:00 7 7 Este 12 Este 0 960.6 -0.1 90
2019-12-06 04:00:00 7.9 7 Este 12 Este 0 960.6 -0.2 85
2019-12-06 03:00:00 8.9 9 Este 14 Este 0 960.6 -0.4 82
2019-12-06 02:00:00 9 4 Este 9 Nordeste 0 960.7 0.1 82
2019-12-06 01:00:00 9.2 5 Este 14 Este 0 960.8 0.7 83
2019-12-06 00:00:00 9.6 11 Este 21 Este 0 961 1.5 78
2019-12-05 23:00:00 9.9 12 Este 17 Este 0 960.6 1.8 78
2019-12-05 22:00:00 10.3 7 Este 22 Nordeste 0 960.1 2 77
2019-12-05 21:00:00 10.8 13 Este 23 Este 0 959.5 1.9 76
2019-12-05 20:00:00 11.3 15 Este 32 Este 0 958.8 1.7 73
2019-12-05 19:00:00 11.6 18 Nordeste 31 Nordeste 0 958.1 1.3 72
2019-12-05 18:00:00 11.9 17 Nordeste 27 Nordeste 0 957.6 1.1 71
2019-12-05 17:00:00 12.4 18 Nordeste 33 Nordeste 0 957.1 0.3 68
2019-12-05 16:00:00 12.6 20 Nordeste 30 Nordeste 0 956.8 -0.2 68
2019-12-05 15:00:00 12.6 16 Nordeste 28 Nordeste 0 956.5 -0.9 68
2019-12-05 14:00:00 12.4 16 Nordeste 29 Este 0 956.8 -0.1 69
2019-12-05 13:00:00 12.5 11 Nordeste 31 Nordeste 0 957 0.6 68
2019-12-05 12:00:00 11.6 21 Este 34 Nordeste 0 957.4 1.8 70
2019-12-05 11:00:00 11.2 22 Este 37 Este 0 956.9 1.8 71
2019-12-05 10:00:00 10.7 10 Este 21 Nordeste 0 956.4 2.1 73
2019-12-05 09:00:00 8 5 Este 14 Nordeste 0 955.6 2 81
2019-12-05 08:00:00 8 9 Nordeste 26 Nordeste 0 955.1 1.9 79
2019-12-05 07:00:00 8.4 17 Nordeste 28 Nordeste 0 954.3 1.2 76
2019-12-05 06:00:00 8.4 13 Nordeste 19 Nordeste 0 953.6 0.9 80
2019-12-05 05:00:00 7.6 6 Nordeste 10 Este 0 953.2 1 93
2019-12-05 04:00:00 7.5 2 Sudeste 8 Norte 0 953.1 1.3 100
2019-12-05 03:00:00 7.6 4 Sudoeste 7 Sur 0 952.7 1.3 100
2019-12-05 02:00:00 7.5 4 Norte 7 Sur 0 952.2 1.4 100
2019-12-05 01:00:00 7.9 7 Noroeste 12 Norte 0 951.8 1.2 97
2019-12-05 00:00:00 7.8 4 Sur 5 Sur 0 951.4 1 99
2019-12-04 23:00:00 7.8 4 Norte 5 Nordeste 0 950.8 0.9 98
2019-12-04 22:00:00 7.9 0 Calma 7 Sur 0 950.6 1.2 98
2019-12-04 21:00:00 7.9 3 Oeste 5 Este 0 950.4 1.3 99
2019-12-04 20:00:00 8.2 0 Calma 5 Sudoeste 0 949.9 1.2 98
2019-12-04 19:00:00 8 5 Sudoeste 9 Sudoeste 0 949.4 1.1 100
2019-12-04 18:00:00 7.9 4 Oeste 11 Oeste 1 949.1 0.8 98
2019-12-04 17:00:00 8.1 5 Noroeste 16 Noroeste 0.4 948.7 0.3 95
2019-12-04 16:00:00 8.3 10 Oeste 14 Oeste 0 948.3 -1.1 95
2019-12-04 15:00:00 8 10 Noroeste 14 Oeste 0 948.3 -1.6 95
2019-12-04 14:00:00 7.8 10 Oeste 15 Oeste 0.6 948.4 -2.2 96
2019-12-04 13:00:00 7.9 6 Oeste 11 Oeste 0.2 949.4 -1.2 94
2019-12-04 12:00:00 7.4 8 Oeste 11 Oeste 0 949.9 -0.5 94
2019-12-04 11:00:00 6.9 3 Sudoeste 7 Noroeste 0.6 950.6 0.4 95
2019-12-04 10:00:00 6.5 4 Oeste 6 Oeste 0.2 950.6 0.1 95
2019-12-04 09:00:00 6.1 3 Noroeste 5 Oeste 0 950.4 -0.2 94
2019-12-04 08:00:00 6.1 0 Calma 6 Sudeste 0 950.2 -1 94
2019-12-04 07:00:00 6.2 3 Este 7 Este 0.2 950.5 -0.9 90
2019-12-04 06:00:00 6.3 0 Calma 12 Este 0 950.6 -1.3 86
2019-12-04 05:00:00 6.4 4 Nordeste 25 Este 0 951.2 -1.5 84
2019-12-04 04:00:00 6.6 16 Nordeste 30 Nordeste 0 951.4 -1.9 82
2019-12-04 03:00:00 7 6 Este 11 Sudeste 0 951.9 -1.7 82
2019-12-04 02:00:00 7.2 3 Norte 13 Este 0 952.7 -0.9 81
2019-12-04 01:00:00 7.5 6 Nordeste 18 Este 0 953.3 -0.4 83
2019-12-04 00:00:00 7.8 10 Este 17 Este 0 953.6 0 81
2019-12-03 23:00:00 7.8 9 Nordeste 14 Este 0 953.6 0 82
2019-12-03 22:00:00 8.5 9 Nordeste 13 Este 0 953.7 0.7 78
2019-12-03 21:00:00 8.7 5 Este 9 Este 0 953.6 0.5 78
2019-12-03 20:00:00 8.7 4 Este 10 Este 0 953.6 0.5 78
2019-12-03 19:00:00 9.1 8 Este 12 Este 0 953 0 77
2019-12-03 18:00:00 9.4 0 Calma 4 Este 0 953.1 -0.1 75
2019-12-03 17:00:00 9.7 3 Sudeste 8 Sur 0 953.1 -0.7 72
2019-12-03 16:00:00 9.9 5 Sudeste 14 Este 0 953 -1.7 70
2019-12-03 15:00:00 9.4 9 Este 15 Este 0 953.2 -2.4 72
2019-12-03 14:00:00 8.9 7 Nordeste 15 Este 0 953.8 -2.3 73
2019-12-03 13:00:00 8.6 8 Este 19 Este 0 954.7 -1.2 73
2019-12-03 12:00:00 7 10 Nordeste 24 Este 0 955.6 -0.1 78
2019-12-03 11:00:00 5.9 14 Este 21 Este 0 956.1 0.4 78
2019-12-03 10:00:00 5.7 9 Este 22 Este 0 955.9 0.3 79
2019-12-03 09:00:00 5.5 14 Este 22 Este 0 955.7 0.1 80
2019-12-03 08:00:00 5.5 8 Este 18 Este 0 955.7 -0.1 80
2019-12-03 07:00:00 5.7 9 Este 17 Este 0 955.6 -0.3 80
2019-12-03 06:00:00 5.8 8 Nordeste 19 Este 0 955.6 -0.7 80
2019-12-03 05:00:00 5.9 10 Este 21 Este 0 955.8 -0.6 80
2019-12-03 04:00:00 5.9 13 Este 23 Este 0 955.9 -1.1 79
2019-12-03 03:00:00 5.9 14 Este 24 Este 0 956.3 -0.7 80
2019-12-03 02:00:00 6.7 14 Este 24 Este 0 956.4 -0.3 78
2019-12-03 01:00:00 7.1 16 Este 25 Este 0 957 0 76
2019-12-03 00:00:00 7.6 15 Este 25 Este 0 957 0.6 74
2019-12-02 23:00:00 7.7 12 Este 30 Este 0 956.7 0.7 74
2019-12-02 22:00:00 8.4 18 Este 35 Este 0 957 1.6 72
2019-12-02 21:00:00 8.8 19 Nordeste 33 Nordeste 0.2 956.4 1.4 73
2019-12-02 20:00:00 9.7 18 Nordeste 32 Este 0 956 1.7 71
2019-12-02 19:00:00 10.6 15 Este 25 Este 0 955.4 1.3 67
2019-12-02 18:00:00 10.7 11 Este 26 Este 0 955 1 68
2019-12-02 17:00:00 11 15 Nordeste 30 Nordeste 0 954.3 0.1 67
2019-12-02 16:00:00 11.5 15 Nordeste 26 Nordeste 0 954.1 -0.7 68
2019-12-02 15:00:00 10.8 13 Nordeste 36 Este 0 954 -1.1 74
2019-12-02 14:00:00 10.6 14 Nordeste 37 Este 0 954.2 -0.7 72
2019-12-02 13:00:00 10.4 27 Este 40 Nordeste 0 954.8 0.5 71
2019-12-02 12:00:00 9.1 15 Este 33 Este 0 955.1 1.6 76
2019-12-02 11:00:00 8.5 19 Este 34 Este 0 954.9 2 77
2019-12-02 10:00:00 7.4 15 Este 27 Este 0 954.3 1.9 82
2019-12-02 09:00:00 7.3 17 Este 37 Este 0 953.5 1.4 81
2019-12-02 08:00:00 7.4 20 Nordeste 41 Nordeste 0 952.9 0.6 83
2019-12-02 07:00:00 7.5 22 Nordeste 37 Nordeste 0.6 952.4 0.4 87
2019-12-02 06:00:00 7.4 10 Nordeste 25 Nordeste 3.2 952.1 0.5 93
2019-12-02 05:00:00 7.7 13 Nordeste 30 Este 1.2 952.3 1.1 95
2019-12-02 04:00:00 8.1 22 Este 33 Este 0.2 952 1 94
2019-12-02 03:00:00 7.9 9 Este 21 Este 0 951.6 0.6 95
2019-12-02 02:00:00 7.9 15 Este 26 Este 0 951.2 0.4 95
2019-12-02 01:00:00 7.9 13 Este 20 Este 0.2 951 0.5 98
2019-12-02 00:00:00 7.9 10 Este 16 Este 0 951 0.6 97
2019-12-01 23:00:00 7.8 12 Este 17 Este 0.6 950.8 0.6 97
2019-12-01 22:00:00 8 7 Este 13 Este 1.6 950.5 0.8 97
2019-12-01 21:00:00 8.3 9 Este 14 Este 0.8 950.4 0.9 96
2019-12-01 20:00:00 8.7 4 Este 6 Sur 0.2 950.2 1 97
2019-12-01 19:00:00 8.9 2 Sur 10 Sur 0.6 949.7 0.3 98
2019-12-01 18:00:00 9.1 7 Sur 18 Sur 0.6 949.5 0 92
2019-12-01 17:00:00 10.1 6 Sudeste 12 Sur 0 949.2 -0.9 90
2019-12-01 16:00:00 10.3 4 Sudeste 12 Sur 2.2 949.4 -1.4 91
2019-12-01 15:00:00 11.1 10 Sur 23 Sur 0 949.5 -2.1 83
2019-12-01 14:00:00 10.9 4 Sur 22 Sur 0.6 950.1 -1.9 85
2019-12-01 13:00:00 10.7 13 Sur 31 Sur 0 950.8 -1.3 80
2019-12-01 12:00:00 11.4 13 Sudoeste 25 Sudoeste 0 951.6 -0.5 74
2019-12-01 11:00:00 10.2 7 Sudeste 14 Sur 0 952 -0.1 83
2019-12-01 10:00:00 8.9 4 Sur 15 Oeste 0.8 952.1 -0.2 89
2019-12-01 09:00:00 8.4 3 Sur 10 Sur 0 952.1 -0.5 88
2019-12-01 08:00:00 7.6 4 Este 9 Sur 0 952.1 -0.6 88
2019-12-01 07:00:00 7.2 4 Nordeste 7 Sur 0 952.3 -1.4 98
2019-12-01 06:00:00 7.4 0 Calma 3 Nordeste 0 952.6 -1.3 97
2019-12-01 05:00:00 7.4 0 Calma 5 Sur 0 952.7 -1.6 98
2019-12-01 04:00:00 7.6 0 Calma 6 Sur 0 953.7 -1.2 99
2019-12-01 03:00:00 7.8 0 Calma 6 Sudeste 0 953.9 -1.3 98
2019-12-01 02:00:00 8 3 Este 11 Noroeste 0 954.3 -0.9 99
2019-12-01 01:00:00 8.7 4 Este 14 Noroeste 0 954.9 -0.9 98
2019-12-01 00:00:00 8.8 10 Este 18 Este 1 955.2 0.2 98
2019-11-30 23:00:00 9.5 9 Este 29 Oeste 2.6 955.2 0.4 98
2019-11-30 22:00:00 11.4 21 Oeste 33 Oeste 0.6 955.8 0.6 96
2019-11-30 21:00:00 13.3 17 Sudoeste 35 Oeste 0 955 -0.7 77
2019-11-30 20:00:00 13 15 Oeste 29 Sudoeste 0 954.8 -1.5 79
2019-11-30 19:00:00 13.3 11 Oeste 22 Sudoeste 0 955.2 -1.3 77
2019-11-30 18:00:00 14.2 14 Sudoeste 26 Sudoeste 0 955.7 -1 72
2019-11-30 17:00:00 15 13 Sudoeste 32 Sudoeste 0 956.3 -1.5 67
2019-11-30 16:00:00 15.5 15 Sudoeste 36 Oeste 0 956.5 -2.2 64
2019-11-30 15:00:00 17.8 20 Oeste 35 Oeste 0 956.7 -3.1 56
2019-11-30 14:00:00 17.3 18 Oeste 32 Oeste 0 957.8 -2.4 60
2019-11-30 13:00:00 16.2 17 Oeste 30 Oeste 0 958.7 -1.5 66
2019-11-30 12:00:00 15.4 13 Oeste 22 Sudoeste 0 959.8 -0.2 72
2019-11-30 11:00:00 15.6 10 Sudoeste 23 Oeste 0 960.2 0.2 74
2019-11-30 10:00:00 12.6 0 Calma 5 Sudeste 0 960.2 0.4 88
2019-11-30 09:00:00 12.3 0 Calma 5 Oeste 0 960 -0.2 86
2019-11-30 08:00:00 12.4 2 Oeste 9 Sudoeste 0 960 -0.5 88
2019-11-30 07:00:00 12.5 4 Sudoeste 7 Sudoeste 0 959.8 -0.8 90
2019-11-30 06:00:00 12.5 0 Calma 10 Noroeste 0 960.2 -0.3 94
2019-11-30 05:00:00 13 3 Oeste 8 Noroeste 0 960.5 -0.4 86
2019-11-30 04:00:00 13.2 3 Sur 10 Sur 0 960.6 -0.6 85
2019-11-30 03:00:00 13.2 0 Calma 8 Noroeste 0 960.5 -0.9 87
2019-11-30 02:00:00 13.2 6 Noroeste 9 Oeste 0 960.9 -0.2 87
2019-11-30 01:00:00 13.6 4 Sudoeste 6 Sudoeste 0 961.2 0.3 84
2019-11-30 00:00:00 13.7 3 Oeste 9 Oeste 0 961.4 0.6 85
2019-11-29 23:00:00 14 7 Oeste 12 Oeste 0 961.1 0.1 82
2019-11-29 22:00:00 13.9 3 Sudoeste 9 Sudoeste 0 960.9 0.1 83
2019-11-29 21:00:00 13.9 4 Sudoeste 10 Oeste 0 960.8 0.2 85
2019-11-29 20:00:00 14.2 6 Sudoeste 14 Oeste 0 961 0.7 85
2019-11-29 19:00:00 14.3 10 Oeste 21 Oeste 0 960.8 0.7 83
2019-11-29 18:00:00 15 11 Oeste 19 Oeste 0 960.6 0.4 80
2019-11-29 17:00:00 15.6 12 Oeste 26 Oeste 0 960.3 -0.2 78
2019-11-29 16:00:00 16 18 Noroeste 34 Oeste 0 960.1 -0.5 74
2019-11-29 15:00:00 15.8 18 Oeste 35 Oeste 0 960.2 -1 76
2019-11-29 14:00:00 15.2 20 Oeste 36 Oeste 0 960.5 -0.4 80
2019-11-29 13:00:00 15.2 22 Oeste 36 Oeste 0 960.6 0.3 86
2019-11-29 12:00:00 14.8 22 Oeste 37 Oeste 0 961.2 1.6 81
2019-11-29 11:00:00 14.1 14 Oeste 27 Noroeste 0 960.9 1.7 83
2019-11-29 10:00:00 13.8 10 Oeste 14 Oeste 0 960.3 1.5 82
2019-11-29 09:00:00 13 8 Oeste 13 Sudoeste 0 959.6 1 85
2019-11-29 08:00:00 13 5 Oeste 25 Oeste 0 959.2 0.9 84
2019-11-29 07:00:00 13.1 13 Noroeste 19 Oeste 0 958.8 0.8 83
2019-11-29 06:00:00 13.2 10 Noroeste 15 Noroeste 0 958.6 0.6 81
2019-11-29 05:00:00 13 9 Noroeste 15 Noroeste 0 958.3 0.7 82
2019-11-29 04:00:00 13.2 9 Noroeste 21 Oeste 0 958 0.2 78
2019-11-29 03:00:00 12.6 2 Oeste 14 Noroeste 0 958 0.4 80
2019-11-29 02:00:00 12.5 9 Oeste 16 Oeste 0 957.6 -0.1 80
2019-11-29 01:00:00 12.2 4 Norte 10 Noroeste 0 957.8 0.3 81
2019-11-29 00:00:00 12.2 5 Nordeste 12 Oeste 0 957.6 0.4 79
2019-11-28 23:00:00 12.6 8 Oeste 19 Oeste 0 957.7 0.7 76
2019-11-28 22:00:00 12.7 10 Oeste 17 Oeste 0 957.5 0.8 75
2019-11-28 21:00:00 12.7 11 Oeste 21 Oeste 0 957.2 0.6 73
2019-11-28 20:00:00 12.8 10 Oeste 17 Oeste 0 957 0.5 74
2019-11-28 19:00:00 12.5 5 Oeste 26 Noroeste 0 956.7 0.4 81
2019-11-28 18:00:00 13.4 19 Oeste 34 Oeste 0 956.6 -0.2 75
2019-11-28 17:00:00 14.1 17 Oeste 26 Oeste 0 956.5 -0.5 68
2019-11-28 16:00:00 14 11 Oeste 25 Oeste 0 956.3 -1.3 71
2019-11-28 15:00:00 13.9 13 Oeste 26 Oeste 0 956.8 -1.3 73
2019-11-28 14:00:00 13.7 16 Oeste 26 Oeste 0 957 -1 72
2019-11-28 13:00:00 13.6 15 Oeste 25 Oeste 0 957.6 -0.1 71
2019-11-28 12:00:00 13.1 10 Sudoeste 27 Oeste 0 958.1 0.7 73
2019-11-28 11:00:00 12.4 5 Sudoeste 16 Oeste 0 958 1.1 78
2019-11-28 10:00:00 11.6 10 Oeste 24 Sudoeste 0 957.7 1.4 78
2019-11-28 09:00:00 11 13 Oeste 25 Oeste 0 957.4 1.3 79
2019-11-28 08:00:00 9.6 8 Oeste 15 Oeste 0 956.9 1 86
2019-11-28 07:00:00 8.4 4 Este 7 Sudeste 0 956.3 0.6 91
2019-11-28 06:00:00 8.3 6 Noroeste 19 Oeste 0 956.1 0.7 91
2019-11-28 05:00:00 8.1 12 Oeste 21 Oeste 0 955.9 0.4 92
2019-11-28 04:00:00 9.1 12 Oeste 17 Noroeste 0 955.7 0.2 87
2019-11-28 03:00:00 9.2 11 Noroeste 21 Oeste 0 955.4 0 86
2019-11-28 02:00:00 10.1 15 Oeste 28 Oeste 0 955.5 0.4 82
2019-11-28 01:00:00 9.3 9 Noroeste 13 Noroeste 0 955.5 0.6 83
2019-11-28 00:00:00 10.1 10 Oeste 22 Oeste 0 955.4 0.8 78
2019-11-27 23:00:00 10.1 9 Noroeste 19 Oeste 0 955.1 0.8 81
2019-11-27 22:00:00 10.8 11 Noroeste 21 Oeste 0 954.9 0.8 79
2019-11-27 21:00:00 11.3 9 Noroeste 18 Oeste 0 954.6 1.3 79
2019-11-27 20:00:00 11.5 10 Oeste 19 Oeste 0 954.3 1 80
2019-11-27 19:00:00 11.8 10 Oeste 25 Noroeste 0 954.1 1.3 76
2019-11-27 18:00:00 12.5 14 Oeste 36 Oeste 0 953.3 0.2 73
2019-11-27 17:00:00 13.6 21 Oeste 35 Oeste 0 953.3 0.2 66
2019-11-27 16:00:00 14 29 Oeste 47 Oeste 0 952.8 -0.9 62
2019-11-27 15:00:00 13.8 27 Oeste 46 Oeste 0 953.1 -1.4 61
2019-11-27 14:00:00 14.2 35 Oeste 54 Oeste 0 953.1 -1.1 56
2019-11-27 06:00:00 11.7 25 Oeste 37 Oeste 0 950.8 0.1 84
2019-11-27 05:00:00 12 23 Oeste 45 Oeste 0 950.7 0.3 89
2019-11-27 04:00:00 11.5 21 Oeste 30 Oeste 0.6 950.5 -0.2 97
2019-11-27 03:00:00 11.7 8 Noroeste 30 Oeste 0 950.7 0.2 94
2019-11-27 02:00:00 13.5 20 Oeste 32 Oeste 0 950.4 0 76
2019-11-27 01:00:00 13.6 15 Oeste 22 Oeste 0 950.7 0.4 78
2019-11-27 00:00:00 13.3 10 Oeste 18 Oeste 0 950.5 0.4 90
2019-11-26 23:00:00 14 10 Oeste 23 Oeste 0 950.4 0.4 87
2019-11-26 22:00:00 14.3 11 Oeste 31 Sudoeste 0 950.3 -0.1 85
2019-11-26 21:00:00 14.4 19 Oeste 37 Sudoeste 0 950.1 -0.5 84
2019-11-26 20:00:00 14.3 17 Sudoeste 29 Sudoeste 0.2 950 -1.1 85
2019-11-26 19:00:00 13.8 10 Sudoeste 19 Sur 0.2 950.4 -0.9 92
2019-11-26 18:00:00 14.1 4 Sudoeste 27 Oeste 0.4 950.6 -1.5 89
2019-11-26 17:00:00 15.1 9 Oeste 20 Oeste 0.2 951.1 -1.8 85
2019-11-26 16:00:00 16.3 13 Oeste 23 Oeste 0 951.3 -2.4 73
2019-11-26 15:00:00 16.2 10 Oeste 18 Oeste 0 952.1 -2.9 75
2019-11-26 14:00:00 16.6 5 Sur 13 Sur 0 952.9 -2.3 71
2019-11-26 13:00:00 14.5 6 Este 10 Sudeste 0 953.7 -1.6 80
2019-11-26 12:00:00 12.6 2 Sudoeste 6 Este 0 955 0 85
2019-11-26 11:00:00 12 5 Sudeste 9 Sudeste 0 955.2 0.4 86
2019-11-26 10:00:00 11.3 2 Sudeste 8 Norte 0 955.3 0.6 89
2019-11-26 09:00:00 10.5 6 Nordeste 7 Nordeste 0 955 0.3 88
2019-11-26 08:00:00 10.2 3 Este 6 Sudoeste 0 954.8 -0.4 87
2019-11-26 07:00:00 10.2 5 Sur 7 Sur 0 954.7 -1.1 87
2019-11-26 06:00:00 11.2 3 Sudoeste 15 Noroeste 0 954.7 -1.1 84
2019-11-26 05:00:00 12.3 10 Oeste 16 Oeste 0 955.2 -0.9 81
2019-11-26 04:00:00 12.2 8 Oeste 11 Oeste 0 955.8 -0.7 81
2019-11-26 03:00:00 12.2 5 Oeste 12 Oeste 0 955.8 -0.6 80
2019-11-26 02:00:00 11.7 6 Oeste 9 Oeste 0 956.1 -0.3 84
2019-11-26 01:00:00 11.8 8 Oeste 12 Oeste 0 956.5 0 85
2019-11-26 00:00:00 12.2 8 Noroeste 10 Noroeste 0 956.4 0.1 86
2019-11-25 23:00:00 11.9 4 Oeste 15 Noroeste 0 956.4 0.6 92
2019-11-25 22:00:00 12.5 10 Oeste 16 Oeste 0 956.5 0.7 92
2019-11-25 21:00:00 13 9 Oeste 22 Oeste 0 956.3 0.9 89
2019-11-25 20:00:00 13.6 15 Noroeste 26 Oeste 0 955.8 0.8 87
2019-11-25 19:00:00 14 15 Noroeste 30 Oeste 0 955.8 1.1 83
2019-11-25 18:00:00 14.5 20 Oeste 33 Oeste 0 955.4 0.8 78
2019-11-25 17:00:00 15.7 21 Oeste 31 Oeste 0 955 0.4 73
2019-11-25 16:00:00 16.6 19 Oeste 31 Noroeste 0 954.7 -0.2 76
2019-11-25 15:00:00 15.5 18 Oeste 30 Noroeste 0 954.6 -0.8 82
2019-11-25 14:00:00 14.9 17 Noroeste 25 Oeste 0 954.6 -0.9 90
2019-11-25 13:00:00 13.5 5 Oeste 9 Oeste 0.2 954.9 -0.4 94
2019-11-25 12:00:00 12.8 0 Calma 8 Este 0 955.4 0.4 93
2019-11-25 11:00:00 11.3 8 Este 13 Este 0 955.5 1 97
2019-11-25 10:00:00 10.5 10 Este 15 Este 0 955.3 0.9 99
2019-11-25 09:00:00 10.2 2 Sur 14 Este 0 955 0.8 100
2019-11-25 08:00:00 9.8 9 Este 14 Este 0 954.5 0.2 100
2019-11-25 07:00:00 9.7 5 Este 7 Este 0 954.4 0.3 100
2019-11-25 06:00:00 9.8 4 Oeste 6 Oeste 0.4 954.2 -0.1 99
2019-11-25 05:00:00 9.9 0 Calma 8 Nordeste 0.6 954.3 -0.1 97
2019-11-25 04:00:00 9.8 5 Nordeste 8 Nordeste 0 954.1 -1.1 97
2019-11-25 03:00:00 10.1 7 Oeste 15 Sudoeste 0 954.3 -0.9 94
2019-11-25 02:00:00 10.6 8 Oeste 12 Oeste 0 954.4 -0.8 84
2019-11-25 01:00:00 10.7 6 Noroeste 11 Noroeste 0 955.2 -0.2 82
2019-11-25 00:00:00 10.7 6 Oeste 10 Sudoeste 0 955.2 -0.4 79
2019-11-24 23:00:00 10.6 6 Sudoeste 14 Sur 0 955.2 -0.3 78
2019-11-24 22:00:00 10.4 6 Oeste 18 Oeste 0 955.4 0.3 77
2019-11-24 21:00:00 10.1 10 Oeste 26 Oeste 0 955.6 0.6 78
2019-11-24 20:00:00 9.8 21 Oeste 30 Oeste 0 955.5 0.5 77
2019-11-24 19:00:00 10 14 Oeste 28 Oeste 0 955.1 0.3 72
2019-11-24 18:00:00 10.6 17 Oeste 36 Oeste 0 955 0.3 67
2019-11-24 17:00:00 12.3 22 Oeste 35 Oeste 0 955 0 58
2019-11-24 16:00:00 12.8 22 Oeste 33 Oeste 0 954.8 -1.2 56
2019-11-24 15:00:00 12.8 19 Oeste 33 Oeste 0 954.7 -2.1 54
2019-11-24 14:00:00 11.5 17 Oeste 25 Oeste 0 955 -1.6 56
2019-11-24 13:00:00 10.5 12 Oeste 26 Oeste 0 956 -0.3 63
2019-11-24 12:00:00 9.5 12 Oeste 18 Oeste 0 956.8 1.2 69
2019-11-24 11:00:00 8.6 7 Oeste 12 Oeste 0 956.6 1.5 72
2019-11-24 10:00:00 7.1 3 Sur 5 Sur 0 956.3 2 83
2019-11-24 09:00:00 4.8 5 Norte 8 Norte 0 955.6 1.8 91
2019-11-24 08:00:00 4.2 3 Noroeste 7 Oeste 0 955.1 1.7 91
2019-11-24 07:00:00 5.1 3 Oeste 13 Norte 0 954.3 1.2 88
2019-11-24 06:00:00 4.7 10 Norte 12 Noroeste 0 953.8 1.1 89
2019-11-24 05:00:00 5.3 6 Noroeste 15 Noroeste 0 953.4 1 86
2019-11-24 04:00:00 6.1 12 Noroeste 22 Noroeste 0 953.1 0.5 83
2019-11-24 03:00:00 6.8 17 Oeste 28 Oeste 0 952.7 0.6 80
2019-11-24 02:00:00 7.1 15 Oeste 23 Oeste 0 952.4 0.7 78
2019-11-24 01:00:00 7.6 16 Oeste 31 Oeste 0 952.6 1.4 76
2019-11-24 00:00:00 7.8 15 Oeste 25 Oeste 0 952.1 1.5 74
2019-11-23 23:00:00 7.9 13 Oeste 25 Oeste 0 951.7 1.6 71
2019-11-23 22:00:00 8.5 14 Oeste 28 Oeste 0 951.2 2.2 67
2019-11-23 21:00:00 9.3 22 Oeste 40 Oeste 0 950.6 2.3 65
2019-11-23 20:00:00 9.8 22 Oeste 32 Oeste 0 950.1 3.1 62
2019-11-23 19:00:00 10.3 24 Oeste 45 Oeste 0 949 3.1 61
2019-11-23 18:00:00 11.8 26 Oeste 41 Oeste 0 948.3 2.9 55
2019-11-23 17:00:00 13.7 23 Noroeste 48 Oeste 0 947 1.8 41
2019-11-23 16:00:00 13.6 28 Oeste 51 Noroeste 0 945.9 0.9 50
2019-11-23 15:00:00 13.3 32 Oeste 51 Oeste 0 945.4 1 50
2019-11-23 14:00:00 13.1 29 Oeste 46 Oeste 0 945.2 1.4 53
2019-11-23 13:00:00 12.2 28 Oeste 49 Oeste 0 945 2.7 57
2019-11-23 12:00:00 11 30 Oeste 48 Oeste 0 944.4 3.3 60
2019-11-23 11:00:00 9.7 26 Oeste 51 Noroeste 0 943.8 4 66
2019-11-23 10:00:00 8.6 24 Oeste 40 Oeste 0 942.3 4.2 70
2019-11-23 09:00:00 7.5 22 Oeste 51 Noroeste 0 941.1 3.4 74
2019-11-23 08:00:00 7.6 28 Oeste 54 Oeste 0 939.8 3.2 75
2019-11-23 07:00:00 7.9 33 Oeste 47 Oeste 0 938.1 1.7 76
2019-11-23 06:00:00 8.2 25 Oeste 54 Oeste 0 937.7 2 76
2019-11-23 05:00:00 8.5 33 Oeste 55 Oeste 0 936.6 1.4 76
2019-11-23 04:00:00 8.6 26 Oeste 53 Oeste 0 936.4 1.3 80
2019-11-23 03:00:00 9.4 30 Oeste 50 Oeste 0 935.7 0.6 80
2019-11-23 02:00:00 9.7 34 Oeste 53 Oeste 0 935.2 0 83
2019-11-23 01:00:00 9.6 25 Oeste 62 Oeste 0 935.1 -0.2 85
2019-11-23 00:00:00 11 27 Oeste 48 Oeste 0 935.1 0.3 72
2019-11-22 23:00:00 11.4 34 Oeste 52 Oeste 0 935.2 0.5 71
2019-11-22 22:00:00 11 28 Oeste 45 Oeste 0 935.3 1.5 72
2019-11-22 21:00:00 10.9 21 Oeste 49 Oeste 0.2 934.8 1.8 86
2019-11-22 20:00:00 12.8 25 Oeste 45 Oeste 0 934.7 1.7 68
2019-11-22 19:00:00 12.9 20 Oeste 45 Oeste 0 933.8 0.9 71
2019-11-22 18:00:00 13.1 5 Oeste 23 Noroeste 0 933 -0.6 91
2019-11-22 17:00:00 13.6 8 Noroeste 24 Noroeste 0 933 -1.2 92
2019-11-22 16:00:00 13.4 14 Oeste 34 Oeste 0.8 932.9 -3.4 90
2019-11-22 15:00:00 13.3 11 Oeste 44 Sudoeste 1.2 933.6 -4.7 88
2019-11-22 14:00:00 13.6 14 Sudoeste 36 Sudoeste 0.6 934.2 -5.4 86
2019-11-22 13:00:00 12.1 11 Sudoeste 28 Sudoeste 0.8 936.3 -4.4 90
2019-11-22 12:00:00 12.1 17 Sur 26 Sur 0 938.3 -3.6 84
2019-11-22 11:00:00 11.9 16 Sur 26 Sur 0 939.6 -3 83
2019-11-22 10:00:00 10.9 10 Sur 18 Sur 0.2 940.7 -2.2 89
2019-11-22 09:00:00 9.7 7 Sur 10 Sur 0.4 941.9 -1.9 93
2019-11-22 08:00:00 9.7 2 Sur 8 Sudoeste 0 942.6 -1.8 91
2019-11-22 07:00:00 9.7 4 Sudoeste 14 Sudoeste 0 942.9 -2.3 89
2019-11-22 06:00:00 9.5 5 Sudoeste 14 Sudoeste 0 943.8 -1.7 89
2019-11-22 05:00:00 8.8 2 Sudoeste 9 Este 0 944.4 -1.7 90
2019-11-22 04:00:00 8.5 4 Sur 11 Sudeste 0 945.2 -1.7 91
2019-11-22 03:00:00 7.3 7 Este 10 Este 0 945.5 -1.8 95
2019-11-22 02:00:00 7.4 0 Calma 9 Este 0 946.1 -1.9 96
2019-11-22 01:00:00 7.4 9 Este 15 Este 0 946.9 -1.3 96
2019-11-22 00:00:00 6.7 5 Este 14 Este 0 947.3 -0.3 97
2019-11-21 23:00:00 7 5 Nordeste 9 Sur 0 948 0 98
2019-11-21 22:00:00 7.3 4 Nordeste 6 Nordeste 0 948.2 0.6 98
2019-11-21 21:00:00 7.7 3 Sudeste 4 Nordeste 0 947.6 0.4 96
2019-11-21 20:00:00 8.1 3 Nordeste 8 Noroeste 0 948 0.7 94
2019-11-21 19:00:00 9.1 3 Noroeste 7 Sudoeste 0 947.6 0.4 92
2019-11-21 18:00:00 10.4 4 Sudoeste 10 Oeste 0 947.2 0 88
2019-11-21 17:00:00 10.9 9 Oeste 27 Oeste 0 947.3 -0.3 85
2019-11-21 16:00:00 11.8 9 Oeste 14 Oeste 0 947.2 -0.9 83
2019-11-21 15:00:00 11.9 4 Oeste 11 Oeste 0 947.2 -1.5 78
2019-11-21 14:00:00 11.2 6 Oeste 9 Oeste 0 947.6 -1.3 85
2019-11-21 13:00:00 10.3 2 Oeste 8 Sur 0.4 948.1 -0.6 91
2019-11-21 12:00:00 9.4 4 Sudeste 8 Sudeste 0 948.7 0.2 92
2019-11-21 11:00:00 8.3 4 Sur 6 Sudeste 0.2 948.9 0.7 98
2019-11-21 10:00:00 7.6 3 Sur 6 Nordeste 0.2 948.7 0.8 99
2019-11-21 09:00:00 6.9 0 Calma 6 Sur 0 948.5 0.8 100
2019-11-21 08:00:00 -- -- -- -- -- -- -- -- --
2019-11-21 07:00:00 -- -- -- -- -- -- -- -- --
2019-11-21 06:00:00 -- -- -- -- -- -- -- -- --
2019-11-21 05:00:00 -- -- -- -- -- -- -- -- --
2019-11-21 04:00:00 -- -- -- -- -- -- -- -- --
2019-11-21 03:00:00 -- -- -- -- -- -- -- -- --
2019-11-21 02:00:00 -- -- -- -- -- -- -- -- --
2019-11-21 01:00:00 -- -- -- -- -- -- -- -- --
2019-11-21 00:00:00 -- -- -- -- -- -- -- -- --
2019-11-20 23:00:00 -- -- -- -- -- -- -- -- --
2019-11-20 22:00:00 -- -- -- -- -- -- -- -- --
2019-11-20 21:00:00 -- -- -- -- -- -- -- -- --
2019-11-20 20:00:00 -- -- -- -- -- -- -- -- --
2019-11-20 19:00:00 7.3 4 Nordeste 8 Este 0 948.4 -0.4 95
2019-11-20 18:00:00 7.4 5 Nordeste 9 Norte 0.2 948.5 -0.4 94
2019-11-20 17:00:00 7.9 5 Norte 8 Noroeste 0.6 948.8 -0.6 94
2019-11-20 16:00:00 8.1 8 Oeste 12 Oeste 0.4 948.8 -1.3 89
2019-11-20 15:00:00 8.8 7 Oeste 15 Oeste 0 948.9 -2.1 85
2019-11-20 14:00:00 9.8 7 Oeste 13 Oeste 0 949.4 -1.7 74
2019-11-20 13:00:00 9.3 4 Sudeste 6 Sudeste 0 950.1 -1.5 74
2019-11-20 12:00:00 8 5 Sudeste 14 Sudeste 0 951 -0.4 78
2019-11-20 11:00:00 6.8 11 Este 16 Este 0 951.1 -0.2 81
2019-11-20 10:00:00 5.4 6 Este 15 Este 0 951.6 0.1 85
2019-11-20 09:00:00 4.6 8 Este 13 Este 0 951.4 -0.3 87
2019-11-20 08:00:00 4.2 6 Sudeste 13 Este 0 951.3 -0.8 89
2019-11-20 07:00:00 4.1 3 Este 10 Este 0 951.5 -1 89
2019-11-20 06:00:00 4 8 Sudeste 11 Este 0 951.7 -1.1 90
2019-11-20 05:00:00 4.7 4 Este 8 Este 0 952.1 -1.2 87
2019-11-20 04:00:00 5 5 Este 11 Este 0 952.5 -1.2 85
2019-11-20 03:00:00 4.8 5 Este 8 Este 0 952.8 -1.4 85
2019-11-20 02:00:00 4.9 7 Este 10 Este 0 953.3 -1.3 86
2019-11-20 01:00:00 5.8 3 Este 6 Este 0 953.7 -1.2 80
2019-11-20 00:00:00 6.2 2 Sudoeste 4 Oeste 0 954.2 -0.7 78
2019-11-19 23:00:00 6.7 0 Calma 7 Oeste 0 954.6 -0.3 77
2019-11-19 22:00:00 7.1 4 Noroeste 5 Noroeste 0 954.9 0.2 74
2019-11-19 21:00:00 7.6 3 Sudoeste 4 Oeste 0 954.9 0.5 72
2019-11-19 20:00:00 8 3 Oeste 4 Oeste 0 954.9 0.3 69
2019-11-19 19:00:00 8.9 3 Noroeste 8 Noroeste 0 954.7 -0.1 65
2019-11-19 18:00:00 9.8 6 Noroeste 15 Noroeste 0 954.4 -0.7 59
2019-11-19 17:00:00 10.9 10 Noroeste 17 Noroeste 0 954.6 -1.2 57
2019-11-19 16:00:00 11.6 10 Noroeste 24 Noroeste 0 954.8 -1.9 55
2019-11-19 15:00:00 12.5 12 Noroeste 21 Oeste 0 955.1 -2.5 52
2019-11-19 14:00:00 12.3 10 Noroeste 15 Oeste 0 955.8 -2.3 49
2019-11-19 13:00:00 10.9 4 Oeste 8 Sudoeste 0 956.7 -1.5 56
2019-11-19 12:00:00 9.4 4 Sudoeste 9 Sudeste 0 957.6 -0.3 66
2019-11-19 11:00:00 6.4 6 Sudeste 10 Sudeste 0 958.1 0.4 76
2019-11-19 10:00:00 3.8 3 Sur 6 Sur 0 958.2 0.9 84
2019-11-19 09:00:00 1.5 4 Sudeste 8 Sudeste 0 957.9 0.6 91
2019-11-19 08:00:00 0.1 4 Este 7 Este 0 957.7 0.6 93
2019-11-19 07:00:00 0.6 0 Calma 7 Este 0 957.3 0 93
2019-11-19 06:00:00 0.7 5 Este 10 Nordeste 0 957.3 -0.1 92
2019-11-19 05:00:00 1.7 3 Nordeste 11 Este 0 957.1 -0.3 89
2019-11-19 04:00:00 1.8 7 Este 11 Sur 0 957.3 -0.3 89
2019-11-19 03:00:00 2.8 4 Norte 7 Norte 0 957.4 -0.2 85
2019-11-19 02:00:00 3.6 2 Norte 8 Sudoeste 0 957.4 -0.5 82
2019-11-19 01:00:00 3.6 2 Este 9 Sur 0 957.6 0 83
2019-11-19 00:00:00 5.1 5 Norte 9 Este 0 957.6 0.4 73
2019-11-18 23:00:00 5.1 2 Sudeste 10 Este 0 957.9 1.2 74
2019-11-18 22:00:00 5.8 5 Este 9 Este 0 957.6 1.3 72
2019-11-18 21:00:00 6.5 3 Oeste 12 Nordeste 0 957.2 1.3 68
2019-11-18 20:00:00 7.1 4 Noroeste 15 Norte 0 956.7 1.3 65
2019-11-18 19:00:00 8.1 7 Norte 19 Norte 0 956.3 1.1 61
2019-11-18 18:00:00 9.4 12 Noroeste 31 Norte 0 955.9 1.1 57
2019-11-18 17:00:00 11.1 20 Norte 33 Norte 0 955.4 0.9 49
2019-11-18 16:00:00 12.2 23 Noroeste 39 Norte 0 955.2 0.5 49
2019-11-18 15:00:00 11.6 21 Noroeste 36 Noroeste 0 954.8 -0.2 52
2019-11-18 14:00:00 12.5 22 Norte 35 Norte 0 954.5 -0.3 51
2019-11-18 13:00:00 11.8 21 Norte 31 Noroeste 0 954.7 0.3 53
2019-11-18 12:00:00 10.9 14 Norte 27 Norte 0 955 1.3 58
2019-11-18 11:00:00 9.1 19 Noroeste 31 Noroeste 0 954.8 1.8 67
2019-11-18 10:00:00 7.5 12 Noroeste 25 Noroeste 0 954.4 2.1 72
2019-11-18 09:00:00 4.8 7 Noroeste 10 Oeste 0 953.7 1.9 84
2019-11-18 08:00:00 4.2 5 Sudoeste 11 Oeste 0 953 1.6 85
2019-11-18 07:00:00 4.5 8 Oeste 14 Norte 0 952.3 1.5 84
2019-11-18 06:00:00 5.6 8 Norte 29 Norte 0 951.8 1.2 78
2019-11-18 05:00:00 6.2 18 Norte 37 Norte 0 951.4 1 77
2019-11-18 04:00:00 6.4 21 Norte 35 Norte 0 950.8 0.5 76
2019-11-18 03:00:00 6.5 20 Noroeste 36 Norte 0 950.6 0.2 76
2019-11-18 02:00:00 5.5 9 Norte 19 Norte 0 950.4 0.1 83
2019-11-18 01:00:00 6.8 6 Noroeste 12 Noroeste 0.2 950.3 0.1 99
2019-11-18 00:00:00 7.6 4 Oeste 7 Oeste 0 950.4 0 98
2019-11-17 23:00:00 8 3 Oeste 6 Oeste 0 950.3 0.1 99
2019-11-17 22:00:00 7.9 0 Calma 13 Sur 2.4 950.2 -0.3 98
2019-11-17 21:00:00 8.1 6 Noroeste 18 Norte 3.4 950.4 -0.7 98
2019-11-17 20:00:00 8 8 Norte 12 Norte 1.4 950.2 -1.1 97
2019-11-17 19:00:00 8 4 Noroeste 12 Oeste 1 950.5 -1.1 95
2019-11-17 18:00:00 8.4 10 Oeste 22 Oeste 0.6 951.1 -1.3 90
2019-11-17 17:00:00 8.9 17 Oeste 23 Oeste 0 951.3 -1.8 81
2019-11-17 16:00:00 8.8 17 Oeste 25 Oeste 0 951.6 -2.1 80
2019-11-17 15:00:00 8.5 13 Oeste 23 Noroeste 0 952.4 -2.2 82
2019-11-17 14:00:00 8.3 15 Noroeste 22 Noroeste 0 953.1 -2.1 77
2019-11-17 13:00:00 8.2 15 Oeste 23 Oeste 0 953.7 -1.5 76
2019-11-17 12:00:00 9 14 Oeste 24 Oeste 0 954.6 -0.6 68
2019-11-17 11:00:00 7.7 18 Oeste 27 Oeste 0 955.2 0.1 70
2019-11-17 10:00:00 6.3 10 Oeste 16 Oeste 0 955.2 0 72
2019-11-17 09:00:00 4.5 8 Oeste 11 Oeste 0 955.2 -0.2 76
2019-11-17 08:00:00 3.9 3 Sudoeste 6 Oeste 0 955.1 -0.2 78
2019-11-17 07:00:00 3.4 5 Noroeste 8 Oeste 0 955.2 -0.4 77
2019-11-17 06:00:00 2.7 6 Noroeste 9 Noroeste 0 955.4 -0.2 78
2019-11-17 05:00:00 2.3 0 Calma 4 Oeste 0 955.3 -0.4 80
2019-11-17 04:00:00 3 4 Sur 7 Noroeste 0 955.6 -0.7 75
2019-11-17 03:00:00 3.4 6 Noroeste 8 Noroeste 0 955.6 -0.7 72
2019-11-17 02:00:00 3.4 5 Oeste 9 Oeste 0 955.7 -0.8 71
2019-11-17 01:00:00 3.6 2 Sur 4 Este 0 956.3 0.1 71
2019-11-17 00:00:00 4.4 3 Este 5 Sur 0 956.3 0.3 69
2019-11-16 23:00:00 4.8 5 Norte 15 Norte 0 956.5 0.9 66
2019-11-16 22:00:00 5.6 11 Norte 21 Oeste 0 956.2 1 63
2019-11-16 21:00:00 7.4 16 Oeste 29 Noroeste 0 956 1 54
2019-11-16 20:00:00 8.1 16 Oeste 24 Oeste 0 955.6 0.9 50
2019-11-16 19:00:00 8.9 14 Oeste 26 Oeste 0 955.2 0.8 48
2019-11-16 18:00:00 10.2 12 Oeste 32 Noroeste 0 955 0.9 43
2019-11-16 17:00:00 11.9 20 Oeste 34 Noroeste 0 954.7 0.4 36
2019-11-16 16:00:00 11.7 17 Oeste 34 Noroeste 0 954.4 -0.2 40
2019-11-16 15:00:00 11.6 19 Oeste 29 Noroeste 0 954.1 -1.1 40
2019-11-16 14:00:00 11.2 17 Oeste 26 Oeste 0 954.3 -0.7 43
2019-11-16 13:00:00 10 15 Oeste 26 Oeste 0 954.6 0.4 47
2019-11-16 12:00:00 8.8 15 Oeste 24 Oeste 0 955.2 1.5 51
2019-11-16 11:00:00 7.7 12 Noroeste 28 Noroeste 0 955 1.8 59
2019-11-16 10:00:00 6.4 14 Norte 23 Norte 0 954.2 1.9 63
2019-11-16 09:00:00 4.4 3 Sudoeste 12 Norte 0 953.7 2.2 71
2019-11-16 08:00:00 3.6 2 Este 26 Noroeste 0 953.2 2.4 71
2019-11-16 07:00:00 4.8 23 Noroeste 35 Noroeste 0 952.3 2.3 66
2019-11-16 06:00:00 4.1 12 Noroeste 25 Noroeste 0 951.5 2 68
2019-11-16 05:00:00 3.9 8 Oeste 27 Norte 0 950.8 1.4 69
2019-11-16 04:00:00 5.1 13 Noroeste 26 Noroeste 0 950 1.2 65
2019-11-16 03:00:00 5.5 17 Noroeste 26 Noroeste 0 949.5 1.1 65
2019-11-16 02:00:00 4 3 Noroeste 10 Noroeste 0 949.4 1.4 67
2019-11-16 01:00:00 4.8 4 Sur 14 Oeste 0 948.8 1.1 66
2019-11-16 00:00:00 5.8 9 Noroeste 19 Noroeste 0 948.4 1.5 60
2019-11-15 23:00:00 6.6 12 Oeste 23 Oeste 0 948 1.6 57
2019-11-15 22:00:00 7.2 12 Oeste 22 Oeste 0 947.7 1.7 55
2019-11-15 21:00:00 7.7 15 Oeste 23 Oeste 0 946.9 1.3 56
2019-11-15 20:00:00 8.2 9 Noroeste 18 Noroeste 0 946.4 0.9 53
2019-11-15 19:00:00 8.4 11 Oeste 17 Noroeste 0 946 0.6 48
2019-11-15 18:00:00 9 9 Noroeste 21 Norte 0 945.6 0.4 45
2019-11-15 17:00:00 9.5 17 Noroeste 31 Noroeste 0 945.5 0.2 44
2019-11-15 16:00:00 9.8 22 Norte 30 Norte 0 945.4 0 43
2019-11-15 15:00:00 10.2 18 Noroeste 27 Noroeste 0 945.2 -1 48
2019-11-15 14:00:00 9.8 19 Noroeste 39 Noroeste 0 945.3 -0.9 50
2019-11-15 13:00:00 9.9 18 Noroeste 33 Noroeste 0 945.4 -0.6 50
2019-11-15 12:00:00 9.6 16 Oeste 25 Oeste 0 946.2 0.3 53
2019-11-15 11:00:00 7.8 13 Oeste 28 Oeste 0 946.2 1.1 57
2019-11-15 10:00:00 6.3 18 Oeste 33 Noroeste 0 946 1.5 63
2019-11-15 09:00:00 5.4 14 Oeste 27 Oeste 0 945.9 1.9 66
2019-11-15 08:00:00 4.8 16 Oeste 22 Oeste 0 945.1 1.2 69
2019-11-15 07:00:00 5.1 15 Oeste 26 Oeste 0 944.5 0.9 70
2019-11-15 06:00:00 5.2 20 Oeste 32 Oeste 0 944 0.4 69
2019-11-15 05:00:00 5.4 19 Oeste 36 Oeste 0 943.9 0.4 68
2019-11-15 04:00:00 5.8 25 Oeste 37 Oeste 0 943.6 0.3 69
2019-11-15 03:00:00 6.5 21 Oeste 38 Oeste 0 943.6 0.5 67
2019-11-15 02:00:00 7 17 Oeste 33 Oeste 0 943.5 0.4 67
2019-11-15 01:00:00 7.6 22 Oeste 36 Noroeste 0 943.3 0.3 65
2019-11-15 00:00:00 7.8 26 Oeste 40 Oeste 0 943.1 0.7 66
2019-11-14 23:00:00 8.1 26 Oeste 44 Oeste 0 943.1 1.4 65
2019-11-14 22:00:00 8.4 26 Oeste 48 Oeste 0 943 1.3 67
2019-11-14 21:00:00 8.6 26 Oeste 52 Oeste 0 942.4 0.8 68
2019-11-14 20:00:00 8.5 37 Oeste 61 Oeste 0 941.7 0.4 69
2019-11-14 19:00:00 8.5 39 Oeste 63 Oeste 0 941.7 0.4 65
2019-11-14 18:00:00 8.9 31 Oeste 65 Oeste 0 941.6 -0.5 62
2019-11-14 17:00:00 9.9 33 Oeste 67 Oeste 0 941.3 -1.5 54
2019-11-14 16:00:00 10.5 39 Oeste 64 Oeste 0 941.3 -2.2 49
2019-11-14 15:00:00 10.9 38 Oeste 58 Oeste 0 942.1 -2.7 52
2019-11-14 14:00:00 11 36 Oeste 59 Oeste 0 942.8 -3 56
2019-11-14 13:00:00 10.4 32 Oeste 47 Oeste 0.2 943.5 -2.1 62
2019-11-14 12:00:00 8.8 12 Oeste 27 Oeste 0 944.8 -0.5 84
2019-11-14 11:00:00 6.1 10 Sudoeste 16 Sudoeste 0 945.8 1.4 93
2019-11-14 10:00:00 5.1 5 Sur 35 Norte 2.2 945.6 1.1 96
2019-11-14 09:00:00 4.4 26 Norte 60 Norte 1.6 945.3 0 95
2019-11-14 08:00:00 10.2 32 Oeste 56 Oeste 0 944.4 -1.7 78
2019-11-14 07:00:00 9.7 15 Oeste 37 Oeste 0 944.5 -2.5 71
2019-11-14 06:00:00 9.7 22 Oeste 43 Oeste 0 945.3 -2.2 71
2019-11-14 05:00:00 10.1 26 Oeste 43 Oeste 0 946.1 -2.3 70
2019-11-14 04:00:00 10.3 25 Oeste 49 Oeste 0 947 -2.2 72
2019-11-14 03:00:00 11 32 Oeste 49 Oeste 0 947.5 -2.1 66
2019-11-14 02:00:00 11.2 24 Oeste 45 Oeste 0 948.4 -2 70
2019-11-14 01:00:00 12 23 Noroeste 36 Noroeste 0 949.2 -1.8 70
2019-11-14 00:00:00 12.3 15 Oeste 21 Oeste 0 949.6 -1.5 74
2019-11-13 23:00:00 12.8 8 Oeste 23 Oeste 0 950.4 -1.2 71
2019-11-13 22:00:00 13.8 16 Oeste 21 Oeste 0 951 -1.2 66
2019-11-13 21:00:00 14.3 15 Oeste 24 Oeste 0 951.1 -0.6 61
2019-11-13 20:00:00 14.8 10 Sudoeste 27 Oeste 0 951.6 0 60
2019-11-13 19:00:00 15.7 16 Oeste 28 Oeste 0 952.2 0.6 56
2019-11-13 18:00:00 16.9 8 Oeste 13 Oeste 0 951.7 0.6 49
2019-11-13 17:00:00 18.5 6 Norte 19 Norte 0 951.6 0.7 45
2019-11-13 16:00:00 18.6 15 Norte 26 Norte 0 951.6 0.3 44
2019-11-13 15:00:00 18.6 15 Norte 29 Noroeste 0 951.1 -0.3 45
2019-11-13 14:00:00 18.5 22 Norte 36 Noroeste 0 950.9 0.1 45
2019-11-13 13:00:00 17.8 27 Noroeste 44 Noroeste 0 951.3 1.5 49
2019-11-13 12:00:00 15.9 17 Norte 46 Oeste 0 951.4 2.6 75
2019-11-13 11:00:00 15.3 28 Oeste 47 Oeste 0 950.8 2.7 75
2019-11-13 10:00:00 14 31 Oeste 49 Oeste 0 949.8 2.5 81
2019-11-13 09:00:00 13.4 26 Oeste 53 Oeste 0 948.8 1.6 84
2019-11-13 08:00:00 13.2 32 Oeste 62 Oeste 0 948.1 0.4 85
2019-11-13 07:00:00 13 39 Oeste 71 Oeste 0 947.3 -0.2 85
2019-11-13 06:00:00 12.9 36 Oeste 63 Oeste 0.2 947.2 -1.1 83
2019-11-13 05:00:00 12.6 35 Oeste 62 Oeste 0 947.7 -1.4 85
2019-11-13 04:00:00 12.7 39 Oeste 62 Oeste 0 947.5 -2 78
2019-11-13 03:00:00 12.7 31 Oeste 53 Oeste 0 948.3 -2.3 78
2019-11-13 02:00:00 12.3 28 Oeste 45 Oeste 0 949.1 -2.5 81
2019-11-13 01:00:00 12.2 26 Oeste 43 Oeste 0 949.5 -2.4 76
2019-11-13 00:00:00 12.2 28 Oeste 43 Oeste 0 950.6 -1.8 73
2019-11-12 23:00:00 12.1 15 Oeste 23 Oeste 0 951.6 -1 64
2019-11-12 22:00:00 12.2 15 Oeste 21 Oeste 0 951.9 -1.2 62
2019-11-12 21:00:00 11.8 11 Oeste 17 Oeste 0 952.4 -0.7 65
2019-11-12 20:00:00 11.3 8 Oeste 12 Oeste 0 952.6 -1 68
2019-11-12 19:00:00 11.7 6 Oeste 18 Oeste 0 953.1 -0.7 65
2019-11-12 18:00:00 12.8 14 Oeste 25 Oeste 0 953.1 -1.1 59
2019-11-12 17:00:00 14.6 13 Oeste 22 Oeste 0 953.6 -1.4 47
2019-11-12 16:00:00 14.7 12 Oeste 27 Oeste 0 953.8 -2.2 46
2019-11-12 15:00:00 14.6 17 Oeste 26 Oeste 0 954.2 -2.4 44
2019-11-12 14:00:00 14.2 16 Noroeste 31 Noroeste 0 955 -1.7 44
2019-11-12 13:00:00 13.3 17 Noroeste 31 Norte 0 956 -0.8 46
2019-11-12 12:00:00 12.6 23 Noroeste 35 Noroeste 0 956.6 -0.2 49
2019-11-12 11:00:00 11.2 6 Norte 12 Nordeste 0 956.7 0.7 61
2019-11-12 10:00:00 8.5 2 Oeste 9 Sur 0 956.8 0.8 71
2019-11-12 09:00:00 5.8 7 Sur 12 Este 0 956.8 0.7 88
2019-11-12 08:00:00 3.9 4 Sur 10 Este 0 956 -0.3 91
2019-11-12 07:00:00 4.4 4 Sudeste 10 Este 0 956 -0.6 92
2019-11-12 06:00:00 4.8 2 Sudeste 7 Norte 0 956.1 -0.7 91
2019-11-12 05:00:00 5.3 4 Norte 6 Sur 0 956.3 -1 90
2019-11-12 04:00:00 5.8 3 Norte 12 Norte 0 956.6 -1 90
2019-11-12 03:00:00 5.5 2 Sur 7 Sur 0 956.8 -0.6 93
2019-11-12 02:00:00 5.6 7 Nordeste 12 Norte 0 957.3 0.1 90
2019-11-12 01:00:00 6.4 6 Norte 11 Sur 0 957.6 0.7 89
2019-11-12 00:00:00 6.7 4 Norte 9 Sur 0 957.4 0.7 93
2019-11-11 23:00:00 8.1 4 Nordeste 11 Nordeste 0 957.2 0.7 84
2019-11-11 22:00:00 8 5 Norte 13 Nordeste 0 956.9 0.7 95
2019-11-11 21:00:00 8.4 5 Este 18 Nordeste 0 956.7 0.9 91
2019-11-11 20:00:00 9.7 4 Norte 10 Noroeste 0 956.5 1 92
2019-11-11 19:00:00 10.2 4 Oeste 17 Oeste 0 956.2 0.8 89
2019-11-11 18:00:00 11.1 10 Oeste 21 Oeste 0 955.8 0.4 86
2019-11-11 17:00:00 11.6 14 Oeste 30 Noroeste 0 955.5 0.2 84
2019-11-11 16:00:00 11.8 19 Oeste 30 Oeste 0 955.4 -0.5 82
2019-11-11 15:00:00 10.8 18 Oeste 33 Oeste 0 955.4 -1.2 83
2019-11-11 14:00:00 10.5 18 Oeste 26 Noroeste 0 955.3 -1.9 83
2019-11-11 13:00:00 10.1 14 Oeste 27 Oeste 0 955.9 -1.4 77
2019-11-11 12:00:00 9.5 16 Oeste 28 Oeste 0 956.6 -1 77
2019-11-11 11:00:00 8.7 10 Oeste 24 Oeste 0 957.2 -0.3 80
2019-11-11 10:00:00 8.1 6 Oeste 17 Oeste 0 957.3 -0.1 82
2019-11-11 09:00:00 6.9 4 Oeste 8 Oeste 0 957.6 0.1 85
2019-11-11 08:00:00 6.3 4 Noroeste 6 Noroeste 0 957.5 -0.1 84
2019-11-11 07:00:00 5.9 0 Calma 5 Sudoeste 0 957.4 -0.8 86
2019-11-11 06:00:00 5.7 3 Noroeste 10 Noroeste 0 957.5 -0.4 86
2019-11-11 05:00:00 6 4 Sur 15 Noroeste 0 957.6 -0.8 83
2019-11-11 04:00:00 5.8 6 Sur 21 Noroeste 0 958.2 -0.8 82
2019-11-11 03:00:00 6.1 10 Noroeste 22 Noroeste 0 957.9 -0.4 80
2019-11-11 02:00:00 5.8 9 Noroeste 15 Noroeste 0 958.4 -0.4 82
2019-11-11 01:00:00 6.4 5 Sudoeste 20 Norte 0 959 1 78
2019-11-11 00:00:00 7.1 14 Norte 21 Noroeste 0 958.3 0.6 74
2019-11-10 23:00:00 7.7 16 Noroeste 26 Norte 0 958.8 0.7 71
2019-11-10 22:00:00 7.8 13 Noroeste 35 Norte 0 958 0.3 70
2019-11-10 21:00:00 7.9 21 Noroeste 30 Noroeste 0 957.7 0.7 72
2019-11-10 20:00:00 7.6 17 Norte 31 Norte 0 958.1 1.3 74
2019-11-10 19:00:00 8.6 21 Noroeste 31 Noroeste 0 957.7 1.2 66
2019-11-10 18:00:00 9.7 19 Noroeste 35 Noroeste 0 957 0.5 62
2019-11-10 17:00:00 10.1 19 Noroeste 32 Noroeste 0 956.8 0.3 61
2019-11-10 16:00:00 10.5 25 Noroeste 37 Noroeste 0 956.5 -0.9 55
2019-11-10 15:00:00 10.7 18 Oeste 31 Oeste 0 956.5 -1.3 58
2019-11-10 14:00:00 10.3 23 Oeste 33 Oeste 0 956.5 -1.5 57
2019-11-10 13:00:00 10.1 24 Oeste 35 Oeste 0 957.4 -0.5 53
2019-11-10 12:00:00 10.1 16 Oeste 24 Oeste 0 957.8 -0.3 55
2019-11-10 11:00:00 9.8 10 Oeste 27 Noroeste 0 958 0.3 55
2019-11-10 10:00:00 9.5 11 Oeste 18 Oeste 0 957.9 0.5 51
2019-11-10 09:00:00 8.4 9 Noroeste 21 Noroeste 0 958.1 1.2 55
2019-11-10 08:00:00 7.5 19 Noroeste 45 Noroeste 0 957.7 1.2 59
2019-11-10 07:00:00 7.9 27 Noroeste 50 Norte 0 957.4 0.5 61
2019-11-10 06:00:00 8.8 29 Norte 46 Norte 0 956.9 0.5 58
2019-11-10 05:00:00 9.3 24 Noroeste 47 Norte 0 956.5 0.2 60
2019-11-10 04:00:00 9.1 5 Noroeste 28 Oeste 0 956.9 0.6 87
2019-11-10 03:00:00 9.7 18 Oeste 30 Oeste 0 956.4 0.2 80
2019-11-10 02:00:00 9.3 17 Oeste 32 Noroeste 0 956.3 -0.1 94
2019-11-10 01:00:00 9.3 18 Oeste 36 Oeste 0 956.3 -0.4 95
2019-11-10 00:00:00 9.3 22 Oeste 32 Oeste 0 956.2 -0.9 98
2019-11-09 23:00:00 9.1 19 Oeste 27 Oeste 0 956.4 -1.4 98
2019-11-09 22:00:00 8.8 10 Oeste 21 Oeste 0 956.7 -1.3 99
2019-11-09 21:00:00 8.7 14 Oeste 24 Oeste 0 957.1 -1 98
2019-11-09 20:00:00 8.7 16 Oeste 25 Oeste 0 957.8 -0.6 96
2019-11-09 19:00:00 8.5 12 Oeste 26 Oeste 0 958 -1 95
2019-11-09 18:00:00 8.2 18 Oeste 27 Oeste 0.8 958.1 -1.1 96
2019-11-09 17:00:00 8 18 Oeste 32 Oeste 5.6 958.4 -1.2 95
2019-11-09 16:00:00 8.7 19 Oeste 38 Oeste 2.4 959 -1.4 87
2019-11-09 15:00:00 12.1 22 Oeste 35 Noroeste 0 959.2 -1.6 50
2019-11-09 14:00:00 12.9 19 Oeste 31 Oeste 0 959.6 -2.2 44
2019-11-09 13:00:00 11.4 16 Oeste 25 Oeste 0 960.4 -1.4 47
2019-11-09 12:00:00 11.3 16 Oeste 27 Oeste 0 960.8 -0.5 51
2019-11-09 11:00:00 9.4 17 Oeste 27 Oeste 0 961.8 0.5 58
2019-11-09 10:00:00 8.2 7 Sudoeste 10 Sudoeste 0 961.8 0.4 63
2019-11-09 09:00:00 5.5 3 Sur 4 Norte 0 961.3 0.1 71
2019-11-09 08:00:00 4.4 4 Norte 7 Noroeste 0 961.3 0.6 73
2019-11-09 07:00:00 3.7 4 Sudeste 7 Sudeste 0 961.4 0.6 78
2019-11-09 06:00:00 4.3 2 Norte 8 Norte 0 961.2 0.4 72
2019-11-09 05:00:00 3.7 4 Noroeste 8 Norte 0 960.7 -0.5 75
2019-11-09 04:00:00 4.6 5 Nordeste 9 Sudeste 0 960.8 -0.2 71
2019-11-09 03:00:00 4.9 2 Noroeste 16 Noroeste 0 960.8 -0.2 68
2019-11-09 02:00:00 5.5 8 Norte 18 Norte 0 961.2 0.7 66
2019-11-09 01:00:00 6.5 5 Norte 8 Norte 0 961 0.7 61
2019-11-09 00:00:00 6.9 5 Noroeste 14 Noroeste 0 961 1.4 61
2019-11-08 23:00:00 7.2 10 Noroeste 17 Noroeste 0 960.5 1.4 61
2019-11-08 22:00:00 8.3 11 Oeste 24 Oeste 0 960.3 2 57
2019-11-08 21:00:00 9.7 18 Noroeste 27 Oeste 0 959.6 2.1 54
2019-11-08 20:00:00 10.4 19 Noroeste 29 Noroeste 0 959.1 2 50
2019-11-08 19:00:00 11 16 Oeste 33 Oeste 0 958.3 2 44
2019-11-08 18:00:00 12.7 23 Noroeste 42 Noroeste 0 957.5 1.4 39
2019-11-08 17:00:00 13.9 26 Oeste 45 Oeste 0 957.1 1 36
2019-11-08 16:00:00 14.2 26 Oeste 40 Oeste 0 956.3 -0.3 34
2019-11-08 15:00:00 13.8 27 Oeste 47 Oeste 0 956.1 -0.7 37
2019-11-08 14:00:00 13.2 22 Noroeste 40 Oeste 0 956.1 -0.8 38
2019-11-08 13:00:00 12 25 Oeste 41 Oeste 0 956.6 0.1 42
2019-11-08 12:00:00 10.8 20 Oeste 35 Oeste 0 956.8 0.9 49
2019-11-08 11:00:00 8.7 21 Oeste 32 Oeste 0 956.9 2 59
2019-11-08 10:00:00 7.1 19 Oeste 29 Oeste 0 956.5 2.2 68
2019-11-08 09:00:00 5.4 12 Noroeste 19 Noroeste 0 955.9 2 77
2019-11-08 08:00:00 4.3 11 Oeste 20 Oeste 0 954.9 1.1 82
2019-11-08 07:00:00 5 12 Oeste 27 Oeste 0 954.3 1.2 80
2019-11-08 06:00:00 5.1 15 Oeste 23 Oeste 0 953.9 1.4 80
2019-11-08 05:00:00 5.8 15 Oeste 33 Oeste 0 953.8 0.8 77
2019-11-08 04:00:00 6.3 20 Oeste 34 Oeste 0 953.1 -0.1 74
2019-11-08 03:00:00 6.8 22 Oeste 32 Oeste 0 952.5 -0.4 70
2019-11-08 02:00:00 7.1 13 Oeste 32 Oeste 0 953 -0.1 71
2019-11-08 01:00:00 7.2 21 Oeste 40 Oeste 0 953.2 0.3 71
2019-11-08 00:00:00 7.9 22 Oeste 35 Oeste 0 952.9 0.4 68